Time,TemperatureF,DewpointF,PressureIn,WindDirection,WindDirectionDegrees,WindSpeedMPH,WindSpeedGustMPH,Humidity,HourlyPrecipIn,Conditions,Clouds,dailyrainin,SoftwareType,DateUTC
2013-04-11 00:10:00,20.0,5.0,30.03,NW,325,3.0,3.0,53,0.00,,,0.00,weatherlink.com 1.10,2013-04-11 06:10:00,
2013-04-11 00:25:00,21.0,6.0,30.02,NNW,341,0.0,5.0,53,0.00,,,0.00,weatherlink.com 1.10,2013-04-11 06:25:00,
2013-04-11 00:40:00,22.0,8.0,30.01,West,276,0.0,19.0,55,0.00,,,0.00,weatherlink.com 1.10,2013-04-11 06:40:00,
2013-04-11 00:55:00,23.6,9.0,30.00,West,277,4.0,12.0,54,0.00,,,0.00,weatherlink.com 1.10,2013-04-11 06:55:00,
2013-04-11 01:10:00,23.9,9.0,29.99,WSW,240,7.0,14.0,54,0.00,,,0.00,weatherlink.com 1.10,2013-04-11 07:10:00,
2013-04-11 01:25:00,24.8,10.0,29.98,West,260,0.0,9.0,53,0.00,,,0.00,weatherlink.com 1.10,2013-04-11 07:25:00,
2013-04-11 01:40:00,24.4,10.0,29.97,West,267,0.0,4.0,54,0.00,,,0.00,weatherlink.com 1.10,2013-04-11 07:40:00,
2013-04-11 01:55:00,23.6,9.0,29.96,West,273,0.0,0.0,55,0.00,,,0.00,weatherlink.com 1.10,2013-04-11 07:55:00,
2013-04-11 02:11:00,22.5,10.0,29.96,West,272,0.0,2.0,59,0.00,,,0.00,weatherlink.com 1.10,2013-04-11 08:11:00,
2013-04-11 02:27:00,22.6,11.0,29.95,SW,235,0.0,3.0,60,0.00,,,0.00,weatherlink.com 1.10,2013-04-11 08:27:00,
2013-04-11 02:41:00,22.9,12.0,29.93,WSW,240,3.0,6.0,62,0.00,,,0.00,weatherlink.com 1.10,2013-04-11 08:41:00,
2013-04-11 02:56:00,23.8,12.0,29.93,WNW,296,0.0,7.0,61,0.00,,,0.00,weatherlink.com 1.10,2013-04-11 08:56:00,
2013-04-11 03:11:00,24.4,13.0,29.90,West,278,4.0,11.0,61,0.00,,,0.00,weatherlink.com 1.10,2013-04-11 09:11:00,
2013-04-11 03:26:00,25.7,13.0,29.89,SW,236,4.0,18.0,58,0.00,,,0.00,weatherlink.com 1.10,2013-04-11 09:26:00,
2013-04-11 03:41:00,26.5,13.0,29.89,West,274,11.0,20.0,57,0.00,,,0.00,weatherlink.com 1.10,2013-04-11 09:41:00,
2013-04-11 03:56:00,26.7,13.0,29.90,WSW,252,2.0,15.0,56,0.00,,,0.00,weatherlink.com 1.10,2013-04-11 09:56:00,
2013-04-11 04:11:00,26.9,13.0,29.89,West,275,6.0,15.0,55,0.00,,,0.00,weatherlink.com 1.10,2013-04-11 10:11:00,
2013-04-11 04:26:00,27.3,13.0,29.87,NW,326,4.0,13.0,55,0.00,,,0.00,weatherlink.com 1.10,2013-04-11 10:26:00,
2013-04-11 04:41:00,26.6,13.0,29.86,WSW,249,1.0,16.0,58,0.00,,,0.00,weatherlink.com 1.10,2013-04-11 10:41:00,
2013-04-11 04:57:00,26.5,13.0,29.88,West,263,3.0,13.0,58,0.00,,,0.00,weatherlink.com 1.10,2013-04-11 10:57:00,
2013-04-11 05:11:00,26.3,13.0,29.88,West,278,0.0,10.0,57,0.00,,,0.00,weatherlink.com 1.10,2013-04-11 11:11:00,
2013-04-11 05:26:00,26.2,13.0,29.88,WSW,250,3.0,4.0,57,0.00,,,0.00,weatherlink.com 1.10,2013-04-11 11:26:00,
2013-04-11 05:41:00,25.5,13.0,29.88,WSW,254,3.0,5.0,59,0.00,,,0.00,weatherlink.com 1.10,2013-04-11 11:41:00,
2013-04-11 05:56:00,25.5,13.0,29.88,WSW,254,0.0,7.0,59,0.00,,,0.00,weatherlink.com 1.10,2013-04-11 11:56:00,
2013-04-11 06:11:00,25.5,13.0,29.87,WSW,249,0.0,6.0,59,0.00,,,0.00,weatherlink.com 1.10,2013-04-11 12:11:00,
2013-04-11 06:26:00,25.1,13.0,29.86,WSW,248,0.0,3.0,60,0.00,,,0.00,weatherlink.com 1.10,2013-04-11 12:26:00,
2013-04-11 06:56:00,24.7,13.0,29.86,WSW,242,2.0,3.0,61,0.00,,,0.00,weatherlink.com 1.10,2013-04-11 12:56:00,
2013-04-11 07:12:00,25.5,13.0,29.85,WSW,251,0.0,1.0,60,0.00,,,0.00,weatherlink.com 1.10,2013-04-11 13:12:00,
2013-04-11 07:27:00,25.7,13.0,29.84,WSW,251,0.0,1.0,60,0.00,,,0.00,weatherlink.com 1.10,2013-04-11 13:27:00,
2013-04-11 07:42:00,26.6,15.0,29.84,WSW,251,0.0,2.0,61,0.00,,,0.00,weatherlink.com 1.10,2013-04-11 13:42:00,
2013-04-11 07:57:00,27.6,14.0,29.84,WSW,251,0.0,2.0,58,0.00,,,0.00,weatherlink.com 1.10,2013-04-11 13:57:00,
2013-04-11 08:12:00,28.0,14.0,29.84,WSW,251,0.0,1.0,57,0.00,,,0.00,weatherlink.com 1.10,2013-04-11 14:12:00,
2013-04-11 08:27:00,29.8,15.0,29.84,West,262,0.0,6.0,55,0.00,,,0.00,weatherlink.com 1.10,2013-04-11 14:27:00,
2013-04-11 08:42:00,32.0,16.0,29.84,NNW,331,2.0,9.0,53,0.00,,,0.00,weatherlink.com 1.10,2013-04-11 14:42:00,
2013-04-11 08:57:00,32.4,17.0,29.83,NNW,346,2.0,9.0,53,0.00,,,0.00,weatherlink.com 1.10,2013-04-11 14:57:00,
2013-04-11 09:12:00,33.7,18.0,29.83,SW,219,5.0,8.0,54,0.00,,,0.00,weatherlink.com 1.10,2013-04-11 15:12:00,
2013-04-11 09:27:00,34.4,19.0,29.82,WSW,250,0.0,10.0,53,0.00,,,0.00,weatherlink.com 1.10,2013-04-11 15:27:00,
2013-04-11 09:42:00,36.0,19.0,29.82,WSW,247,0.0,11.0,50,0.00,,,0.00,weatherlink.com 1.10,2013-04-11 15:42:00,
2013-04-11 09:57:00,36.5,19.0,29.82,SW,221,4.0,15.0,50,0.00,,,0.00,weatherlink.com 1.10,2013-04-11 15:57:00,
2013-04-11 10:12:00,34.4,19.0,29.82,ESE,105,0.0,10.0,53,0.00,,,0.00,weatherlink.com 1.10,2013-04-11 16:12:00,
2013-04-11 10:27:00,32.9,19.0,29.81,SSW,194,1.0,13.0,56,0.00,,,0.00,weatherlink.com 1.10,2013-04-11 16:27:00,
2013-04-11 10:42:00,33.9,17.0,29.80,WNW,283,0.0,21.0,50,0.00,,,0.00,weatherlink.com 1.10,2013-04-11 16:42:00,
2013-04-11 10:57:00,35.7,17.0,29.81,West,263,1.0,21.0,47,0.00,,,0.00,weatherlink.com 1.10,2013-04-11 16:57:00,
2013-04-11 11:12:00,35.4,19.0,29.80,West,265,0.0,13.0,52,0.00,,,0.00,weatherlink.com 1.10,2013-04-11 17:12:00,
2013-04-11 11:27:00,37.3,20.0,29.80,WSW,255,6.0,17.0,50,0.00,,,0.00,weatherlink.com 1.10,2013-04-11 17:27:00,
2013-04-11 11:57:00,38.6,20.0,29.78,WSW,256,0.0,20.0,48,0.00,,,0.00,weatherlink.com 1.10,2013-04-11 17:57:00,
2013-04-11 12:13:00,40.9,23.0,29.77,SSW,208,0.0,12.0,49,0.00,,,0.00,weatherlink.com 1.10,2013-04-11 18:13:00,
2013-04-11 12:28:00,40.3,18.0,29.77,SSE,159,2.0,19.0,41,0.00,,,0.00,weatherlink.com 1.10,2013-04-11 18:28:00,
2013-04-11 12:43:00,39.8,19.0,29.77,West,269,0.0,9.0,43,0.00,,,0.00,weatherlink.com 1.10,2013-04-11 18:43:00,
2013-04-11 12:58:00,38.8,19.0,29.77,WSW,250,2.0,14.0,45,0.00,,,0.00,weatherlink.com 1.10,2013-04-11 18:58:00,
2013-04-11 13:13:00,38.6,19.0,29.77,WSW,240,3.0,8.0,46,0.00,,,0.00,weatherlink.com 1.10,2013-04-11 19:13:00,
2013-04-11 13:29:00,39.8,20.0,29.77,WNW,297,2.0,11.0,45,0.00,,,0.00,weatherlink.com 1.10,2013-04-11 19:29:00,
2013-04-11 13:43:00,40.1,20.0,29.77,West,273,0.0,11.0,45,0.00,,,0.00,weatherlink.com 1.10,2013-04-11 19:43:00,
2013-04-11 13:58:00,40.5,21.0,29.77,West,271,6.0,11.0,46,0.00,,,0.00,weatherlink.com 1.10,2013-04-11 19:58:00,
2013-04-11 14:13:00,38.8,23.0,29.78,NW,317,4.0,13.0,53,0.00,,,0.00,weatherlink.com 1.10,2013-04-11 20:13:00,
2013-04-11 14:28:00,40.2,23.0,29.78,SSW,205,1.0,13.0,51,0.00,,,0.00,weatherlink.com 1.10,2013-04-11 20:28:00,
2013-04-11 14:43:00,41.1,23.0,29.78,West,274,6.0,12.0,48,0.00,,,0.00,weatherlink.com 1.10,2013-04-11 20:43:00,
2013-04-11 14:58:00,40.0,22.0,29.77,SW,214,1.0,14.0,49,0.00,,,0.00,weatherlink.com 1.10,2013-04-11 20:58:00,
2013-04-11 15:13:00,40.8,21.0,29.77,SW,234,4.0,14.0,46,0.00,,,0.00,weatherlink.com 1.10,2013-04-11 21:13:00,
2013-04-11 15:28:00,40.4,20.0,29.76,NW,315,0.0,15.0,44,0.00,,,0.00,weatherlink.com 1.10,2013-04-11 21:28:00,
2013-04-11 15:43:00,40.2,19.0,29.76,WSW,244,3.0,9.0,43,0.00,,,0.00,weatherlink.com 1.10,2013-04-11 21:43:00,
2013-04-11 15:58:00,40.8,17.0,29.76,WSW,246,3.0,14.0,38,0.00,,,0.00,weatherlink.com 1.10,2013-04-11 21:58:00,
2013-04-11 16:13:00,39.8,18.0,29.76,WSW,244,2.0,14.0,41,0.00,,,0.00,weatherlink.com 1.10,2013-04-11 22:13:00,
2013-04-11 16:28:00,39.7,18.0,29.75,West,267,1.0,11.0,42,0.00,,,0.00,weatherlink.com 1.10,2013-04-11 22:28:00,
2013-04-11 16:43:00,40.2,16.0,29.75,West,260,10.0,18.0,38,0.00,,,0.00,weatherlink.com 1.10,2013-04-11 22:43:00,
2013-04-11 16:58:00,40.4,15.0,29.75,West,263,2.0,18.0,36,0.00,,,0.00,weatherlink.com 1.10,2013-04-11 22:58:00,
2013-04-11 17:15:00,41.3,17.0,29.76,West,268,8.0,11.0,37,0.00,,,0.00,weatherlink.com 1.10,2013-04-11 23:15:00,
2013-04-11 17:28:00,40.1,17.0,29.77,West,265,6.0,8.0,39,0.00,,,0.00,weatherlink.com 1.10,2013-04-11 23:28:00,
2013-04-11 17:43:00,40.0,16.0,29.77,West,270,1.0,8.0,38,0.00,,,0.00,weatherlink.com 1.10,2013-04-11 23:43:00,
2013-04-11 17:58:00,39.5,17.0,29.77,WNW,283,0.0,14.0,40,0.00,,,0.00,weatherlink.com 1.10,2013-04-11 23:58:00,
2013-04-11 18:14:00,39.2,14.0,29.76,WSW,251,0.0,15.0,36,0.00,,,0.00,weatherlink.com 1.10,2013-04-12 00:14:00,
2013-04-11 18:29:00,38.6,15.0,29.77,WSW,246,2.0,13.0,39,0.00,,,0.00,weatherlink.com 1.10,2013-04-12 00:29:00,
2013-04-11 18:44:00,38.0,15.0,29.76,SW,223,7.0,9.0,39,0.00,,,0.00,weatherlink.com 1.10,2013-04-12 00:44:00,
2013-04-11 18:59:00,37.2,15.0,29.75,West,277,7.0,13.0,41,0.00,,,0.00,weatherlink.com 1.10,2013-04-12 00:59:00,
2013-04-11 19:14:00,36.2,16.0,29.75,ESE,122,0.0,6.0,44,0.00,,,0.00,weatherlink.com 1.10,2013-04-12 01:14:00,
2013-04-11 19:29:00,35.2,15.0,29.76,SE,144,0.0,2.0,44,0.00,,,0.00,weatherlink.com 1.10,2013-04-12 01:29:00,
2013-04-11 19:44:00,34.4,15.0,29.77,WSW,248,1.0,5.0,46,0.00,,,0.00,weatherlink.com 1.10,2013-04-12 01:44:00,
2013-04-11 19:59:00,34.1,16.0,29.77,WSW,240,5.0,6.0,48,0.00,,,0.00,weatherlink.com 1.10,2013-04-12 01:59:00,
2013-04-11 20:14:00,33.8,16.0,29.77,WSW,244,0.0,8.0,49,0.00,,,0.00,weatherlink.com 1.10,2013-04-12 02:14:00,
2013-04-11 20:29:00,33.1,17.0,29.77,WSW,257,0.0,2.0,51,0.00,,,0.00,weatherlink.com 1.10,2013-04-12 02:29:00,
2013-04-11 20:44:00,31.7,17.0,29.79,WSW,257,0.0,1.0,54,0.00,,,0.00,weatherlink.com 1.10,2013-04-12 02:44:00,
2013-04-11 21:00:00,31.2,17.0,29.79,WSW,240,0.0,3.0,57,0.00,,,0.00,weatherlink.com 1.10,2013-04-12 03:00:00,
2013-04-11 21:14:00,31.3,17.0,29.80,WSW,241,0.0,3.0,56,0.00,,,0.00,weatherlink.com 1.10,2013-04-12 03:14:00,
2013-04-11 21:29:00,31.1,18.0,29.80,WSW,245,0.0,3.0,58,0.00,,,0.00,weatherlink.com 1.10,2013-04-12 03:29:00,
2013-04-11 21:44:00,30.2,17.0,29.80,WSW,253,0.0,0.0,59,0.00,,,0.00,weatherlink.com 1.10,2013-04-12 03:44:00,
2013-04-11 21:59:00,29.8,18.0,29.80,WSW,253,0.0,1.0,62,0.00,,,0.00,weatherlink.com 1.10,2013-04-12 03:59:00,
2013-04-11 22:14:00,29.3,18.0,29.81,SW,218,0.0,2.0,62,0.00,,,0.00,weatherlink.com 1.10,2013-04-12 04:14:00,
2013-04-11 22:29:00,28.9,18.0,29.81,SW,218,0.0,0.0,64,0.00,,,0.00,weatherlink.com 1.10,2013-04-12 04:29:00,
2013-04-11 22:44:00,28.5,17.0,29.81,SW,218,0.0,1.0,63,0.00,,,0.00,weatherlink.com 1.10,2013-04-12 04:44:00,
2013-04-11 22:59:00,28.4,17.0,29.80,SW,218,0.0,0.0,63,0.00,,,0.00,weatherlink.com 1.10,2013-04-12 04:59:00,
2013-04-11 23:14:00,28.2,18.0,29.80,SW,218,0.0,0.0,65,0.00,,,0.00,weatherlink.com 1.10,2013-04-12 05:14:00,
2013-04-11 23:29:00,28.1,18.0,29.80,SW,218,1.0,1.0,66,0.00,,,0.00,weatherlink.com 1.10,2013-04-12 05:29:00,
2013-04-11 23:44:00,28.2,18.0,29.80,SW,218,0.0,1.0,65,0.00,,,0.00,weatherlink.com 1.10,2013-04-12 05:44:00,
2013-04-11 23:59:00,28.8,18.0,29.80,SW,217,0.0,2.0,64,0.00,,,0.00,weatherlink.com 1.10,2013-04-12 05:59:00,